sensor_id;sensor_type;location;lat;lon;timestamp;pressure;altitude;pressure_sealevel;temperature;humidity
10606;BME280;5350;42.698;23.148;2023-01-28T00:00:16;93006.09;;;-0.30;100.00
10606;BME280;5350;42.698;23.148;2023-01-28T00:02:46;93010.47;;;-0.14;100.00
10606;BME280;5350;42.698;23.148;2023-01-28T00:05:14;93006.41;;;-0.27;100.00
10606;BME280;5350;42.698;23.148;2023-01-28T00:07:41;93006.88;;;-0.13;100.00
10606;BME280;5350;42.698;23.148;2023-01-28T00:10:09;93008.97;;;-0.10;100.00
10606;BME280;5350;42.698;23.148;2023-01-28T00:12:36;93004.19;;;-0.18;100.00
10606;BME280;5350;42.698;23.148;2023-01-28T00:15:03;93005.06;;;-0.13;100.00
10606;BME280;5350;42.698;23.148;2023-01-28T00:17:31;93019.72;;;-0.18;100.00
10606;BME280;5350;42.698;23.148;2023-01-28T00:19:58;93014.66;;;-0.08;100.00
10606;BME280;5350;42.698;23.148;2023-01-28T00:22:25;93022.22;;;-0.07;100.00
10606;BME280;5350;42.698;23.148;2023-01-28T00:24:52;93019.84;;;-0.08;100.00
10606;BME280;5350;42.698;23.148;2023-01-28T00:27:18;93021.13;;;-0.11;100.00
10606;BME280;5350;42.698;23.148;2023-01-28T00:29:45;93021.84;;;0.07;100.00
10606;BME280;5350;42.698;23.148;2023-01-28T00:32:12;93028.97;;;0.16;100.00
10606;BME280;5350;42.698;23.148;2023-01-28T00:34:41;93017.63;;;0.00;100.00
10606;BME280;5350;42.698;23.148;2023-01-28T00:37:08;93032.44;;;0.05;100.00
10606;BME280;5350;42.698;23.148;2023-01-28T00:39:35;93033.47;;;0.04;100.00
10606;BME280;5350;42.698;23.148;2023-01-28T00:42:02;93028.75;;;0.01;100.00
10606;BME280;5350;42.698;23.148;2023-01-28T00:44:29;93025.72;;;0.04;100.00
10606;BME280;5350;42.698;23.148;2023-01-28T00:46:55;93026.44;;;0.21;100.00
10606;BME280;5350;42.698;23.148;2023-01-28T00:49:22;93045.16;;;0.28;100.00
10606;BME280;5350;42.698;23.148;2023-01-28T00:51:50;93043.28;;;0.24;100.00
10606;BME280;5350;42.698;23.148;2023-01-28T00:54:17;93036.91;;;0.31;100.00
10606;BME280;5350;42.698;23.148;2023-01-28T00:56:44;93038.75;;;0.36;100.00
10606;BME280;5350;42.698;23.148;2023-01-28T00:59:11;93039.81;;;0.35;100.00
10606;BME280;5350;42.698;23.148;2023-01-28T01:01:37;93047.44;;;0.46;100.00
10606;BME280;5350;42.698;23.148;2023-01-28T01:04:04;93035.03;;;0.48;100.00
10606;BME280;5350;42.698;23.148;2023-01-28T01:06:32;93040.59;;;0.35;100.00
10606;BME280;5350;42.698;23.148;2023-01-28T01:09:02;93037.94;;;0.30;100.00
10606;BME280;5350;42.698;23.148;2023-01-28T01:11:30;93040.16;;;0.22;100.00
10606;BME280;5350;42.698;23.148;2023-01-28T01:13:58;93044.78;;;0.20;100.00
10606;BME280;5350;42.698;23.148;2023-01-28T01:16:27;93044.31;;;0.23;100.00
10606;BME280;5350;42.698;23.148;2023-01-28T01:18:55;93049.91;;;-0.02;100.00
10606;BME280;5350;42.698;23.148;2023-01-28T01:21:24;93046.44;;;0.09;100.00
10606;BME280;5350;42.698;23.148;2023-01-28T01:23:52;93048.91;;;-0.01;100.00
10606;BME280;5350;42.698;23.148;2023-01-28T01:26:20;93053.13;;;0.05;100.00
10606;BME280;5350;42.698;23.148;2023-01-28T01:28:47;93048.59;;;-0.05;100.00
10606;BME280;5350;42.698;23.148;2023-01-28T01:31:17;93052.41;;;0.10;100.00
10606;BME280;5350;42.698;23.148;2023-01-28T01:33:46;93048.03;;;0.10;100.00
10606;BME280;5350;42.698;23.148;2023-01-28T01:36:15;93053.31;;;0.20;100.00
10606;BME280;5350;42.698;23.148;2023-01-28T01:38:43;93051.91;;;0.13;100.00
10606;BME280;5350;42.698;23.148;2023-01-28T01:41:21;93055.19;;;0.25;100.00
10606;BME280;5350;42.698;23.148;2023-01-28T01:43:49;93046.94;;;0.06;100.00
10606;BME280;5350;42.698;23.148;2023-01-28T01:46:20;93063.06;;;0.13;100.00
10606;BME280;5350;42.698;23.148;2023-01-28T01:48:49;93052.72;;;0.13;100.00
10606;BME280;5350;42.698;23.148;2023-01-28T01:51:19;93060.53;;;0.18;100.00
10606;BME280;5350;42.698;23.148;2023-01-28T01:53:48;93058.97;;;0.17;100.00
10606;BME280;5350;42.698;23.148;2023-01-28T01:56:22;93048.41;;;0.19;100.00
10606;BME280;5350;42.698;23.148;2023-01-28T01:58:54;93050.53;;;0.05;100.00
10606;BME280;5350;42.698;23.148;2023-01-28T02:01:24;93061.88;;;0.21;100.00
10606;BME280;5350;42.698;23.148;2023-01-28T02:03:58;93061.34;;;0.19;100.00
10606;BME280;5350;42.698;23.148;2023-01-28T02:06:27;93062.97;;;0.25;100.00
10606;BME280;5350;42.698;23.148;2023-01-28T02:08:56;93068.69;;;0.27;100.00
10606;BME280;5350;42.698;23.148;2023-01-28T02:11:26;93065.53;;;0.25;100.00
10606;BME280;5350;42.698;23.148;2023-01-28T02:13:57;93073.88;;;0.10;100.00
10606;BME280;5350;42.698;23.148;2023-01-28T02:16:25;93073.47;;;0.18;100.00
10606;BME280;5350;42.698;23.148;2023-01-28T02:18:53;93062.72;;;0.26;100.00
10606;BME280;5350;42.698;23.148;2023-01-28T02:21:35;93064.41;;;-0.01;100.00
10606;BME280;5350;42.698;23.148;2023-01-28T02:24:24;93074.97;;;0.14;100.00
10606;BME280;5350;42.698;23.148;2023-01-28T02:27:13;93066.31;;;0.25;100.00
10606;BME280;5350;42.698;23.148;2023-01-28T02:29:49;93074.16;;;0.30;100.00
10606;BME280;5350;42.698;23.148;2023-01-28T02:32:24;93083.09;;;0.23;100.00
10606;BME280;5350;42.698;23.148;2023-01-28T02:34:57;93079.47;;;0.02;100.00
10606;BME280;5350;42.698;23.148;2023-01-28T02:37:33;93073.44;;;-0.20;100.00
10606;BME280;5350;42.698;23.148;2023-01-28T02:40:07;93067.81;;;-0.17;100.00
10606;BME280;5350;42.698;23.148;2023-01-28T02:42:37;93067.88;;;-0.12;100.00
10606;BME280;5350;42.698;23.148;2023-01-28T02:45:14;93078.34;;;-0.02;100.00
10606;BME280;5350;42.698;23.148;2023-01-28T02:47:43;93066.22;;;-0.02;100.00
10606;BME280;5350;42.698;23.148;2023-01-28T02:50:28;93071.16;;;-0.17;100.00
10606;BME280;5350;42.698;23.148;2023-01-28T02:53:07;93068.59;;;0.00;100.00
10606;BME280;5350;42.698;23.148;2023-01-28T02:56:03;93073.94;;;-0.23;100.00
10606;BME280;5350;42.698;23.148;2023-01-28T02:58:37;93067.81;;;-0.34;100.00
10606;BME280;5350;42.698;23.148;2023-01-28T03:01:13;93080.41;;;-0.37;100.00
10606;BME280;5350;42.698;23.148;2023-01-28T03:03:45;93074.84;;;-0.29;100.00
10606;BME280;5350;42.698;23.148;2023-01-28T03:06:20;93081.69;;;-0.56;100.00
10606;BME280;5350;42.698;23.148;2023-01-28T03:08:53;93069.06;;;-0.53;100.00
10606;BME280;5350;42.698;23.148;2023-01-28T03:11:40;93080.03;;;-0.46;100.00
10606;BME280;5350;42.698;23.148;2023-01-28T03:14:25;93087.00;;;-0.46;100.00
10606;BME280;5350;42.698;23.148;2023-01-28T03:17:16;93080.25;;;-0.47;100.00
10606;BME280;5350;42.698;23.148;2023-01-28T03:20:02;93086.06;;;-0.40;100.00
10606;BME280;5350;42.698;23.148;2023-01-28T03:22:50;93085.66;;;-0.49;100.00
10606;BME280;5350;42.698;23.148;2023-01-28T03:25:38;93085.72;;;-0.60;100.00
10606;BME280;5350;42.698;23.148;2023-01-28T03:28:24;93088.94;;;-0.53;100.00
10606;BME280;5350;42.698;23.148;2023-01-28T03:31:11;93090.03;;;-0.66;100.00
10606;BME280;5350;42.698;23.148;2023-01-28T03:33:59;93091.63;;;-0.65;100.00
10606;BME280;5350;42.698;23.148;2023-01-28T03:36:45;93094.41;;;-0.66;100.00
10606;BME280;5350;42.698;23.148;2023-01-28T03:39:12;93096.16;;;-0.55;100.00
10606;BME280;5350;42.698;23.148;2023-01-28T03:41:39;93098.19;;;-0.57;100.00
10606;BME280;5350;42.698;23.148;2023-01-28T03:44:06;93096.84;;;-0.60;100.00
10606;BME280;5350;42.698;23.148;2023-01-28T03:46:50;93094.13;;;-0.53;100.00
10606;BME280;5350;42.698;23.148;2023-01-28T03:49:18;93098.97;;;-0.57;100.00
10606;BME280;5350;42.698;23.148;2023-01-28T03:51:45;93100.88;;;-0.52;100.00
10606;BME280;5350;42.698;23.148;2023-01-28T03:54:12;93102.56;;;-0.41;100.00
10606;BME280;5350;42.698;23.148;2023-01-28T03:56:39;93101.56;;;-0.40;100.00
10606;BME280;5350;42.698;23.148;2023-01-28T03:59:06;93104.69;;;-0.38;100.00
10606;BME280;5350;42.698;23.148;2023-01-28T04:01:33;93109.88;;;-0.22;100.00
10606;BME280;5350;42.698;23.148;2023-01-28T04:04:00;93106.34;;;-0.16;100.00
10606;BME280;5350;42.698;23.148;2023-01-28T04:06:28;93103.59;;;-0.09;100.00
10606;BME280;5350;42.698;23.148;2023-01-28T04:08:55;93103.75;;;0.01;100.00
10606;BME280;5350;42.698;23.148;2023-01-28T04:11:24;93108.22;;;0.06;100.00
10606;BME280;5350;42.698;23.148;2023-01-28T04:13:51;93126.22;;;0.17;100.00
10606;BME280;5350;42.698;23.148;2023-01-28T04:16:18;93119.34;;;0.06;100.00
10606;BME280;5350;42.698;23.148;2023-01-28T04:18:46;93115.25;;;0.10;100.00
10606;BME280;5350;42.698;23.148;2023-01-28T04:21:12;93118.56;;;0.06;100.00
10606;BME280;5350;42.698;23.148;2023-01-28T04:23:40;93123.44;;;0.02;100.00
10606;BME280;5350;42.698;23.148;2023-01-28T04:26:07;93124.91;;;0.15;100.00
10606;BME280;5350;42.698;23.148;2023-01-28T04:28:34;93127.00;;;0.01;100.00
10606;BME280;5350;42.698;23.148;2023-01-28T04:31:01;93128.19;;;0.10;100.00
10606;BME280;5350;42.698;23.148;2023-01-28T04:33:27;93132.97;;;0.02;100.00
10606;BME280;5350;42.698;23.148;2023-01-28T04:35:54;93126.94;;;-0.04;100.00
10606;BME280;5350;42.698;23.148;2023-01-28T04:38:21;93139.41;;;-0.01;100.00
10606;BME280;5350;42.698;23.148;2023-01-28T04:40:53;93145.56;;;-0.19;100.00
10606;BME280;5350;42.698;23.148;2023-01-28T04:43:20;93138.91;;;-0.15;100.00
10606;BME280;5350;42.698;23.148;2023-01-28T04:45:47;93140.50;;;-0.14;100.00
10606;BME280;5350;42.698;23.148;2023-01-28T04:48:14;93143.88;;;-0.13;100.00
10606;BME280;5350;42.698;23.148;2023-01-28T04:50:42;93145.50;;;-0.07;100.00
10606;BME280;5350;42.698;23.148;2023-01-28T04:53:09;93142.94;;;-0.07;100.00
10606;BME280;5350;42.698;23.148;2023-01-28T04:55:36;93153.81;;;-0.05;100.00
10606;BME280;5350;42.698;23.148;2023-01-28T04:58:04;93150.97;;;0.13;100.00
10606;BME280;5350;42.698;23.148;2023-01-28T05:00:31;93149.72;;;0.16;100.00
10606;BME280;5350;42.698;23.148;2023-01-28T05:02:58;93158.13;;;0.23;100.00
10606;BME280;5350;42.698;23.148;2023-01-28T05:05:24;93153.31;;;0.31;100.00
10606;BME280;5350;42.698;23.148;2023-01-28T05:07:52;93155.19;;;0.36;100.00
10606;BME280;5350;42.698;23.148;2023-01-28T05:10:19;93160.78;;;0.11;100.00
10606;BME280;5350;42.698;23.148;2023-01-28T05:12:48;93161.09;;;0.15;100.00
10606;BME280;5350;42.698;23.148;2023-01-28T05:15:17;93161.31;;;-0.04;100.00
10606;BME280;5350;42.698;23.148;2023-01-28T05:17:45;93168.06;;;-0.03;100.00
10606;BME280;5350;42.698;23.148;2023-01-28T05:22:39;93184.19;;;-0.12;100.00
10606;BME280;5350;42.698;23.148;2023-01-28T05:25:07;93168.47;;;0.06;100.00
10606;BME280;5350;42.698;23.148;2023-01-28T05:27:34;93177.78;;;-0.10;100.00
10606;BME280;5350;42.698;23.148;2023-01-28T05:30:01;93177.00;;;-0.10;100.00
10606;BME280;5350;42.698;23.148;2023-01-28T05:32:29;93167.28;;;-0.03;100.00
10606;BME280;5350;42.698;23.148;2023-01-28T05:34:56;93174.94;;;0.09;100.00
10606;BME280;5350;42.698;23.148;2023-01-28T05:37:22;93181.94;;;0.08;100.00
10606;BME280;5350;42.698;23.148;2023-01-28T05:39:49;93188.75;;;-0.19;100.00
10606;BME280;5350;42.698;23.148;2023-01-28T05:42:16;93183.59;;;-0.19;100.00
10606;BME280;5350;42.698;23.148;2023-01-28T05:44:45;93189.38;;;-0.12;100.00
10606;BME280;5350;42.698;23.148;2023-01-28T05:47:11;93194.09;;;-0.09;100.00
10606;BME280;5350;42.698;23.148;2023-01-28T05:49:39;93193.59;;;-0.06;100.00
10606;BME280;5350;42.698;23.148;2023-01-28T05:52:06;93194.69;;;-0.19;100.00
10606;BME280;5350;42.698;23.148;2023-01-28T05:54:33;93198.94;;;-0.13;100.00
10606;BME280;5350;42.698;23.148;2023-01-28T05:57:00;93205.63;;;0.00;100.00
10606;BME280;5350;42.698;23.148;2023-01-28T05:59:26;93198.19;;;-0.25;100.00
10606;BME280;5350;42.698;23.148;2023-01-28T06:01:53;93202.78;;;-0.15;100.00
10606;BME280;5350;42.698;23.148;2023-01-28T06:04:20;93200.41;;;-0.17;100.00
10606;BME280;5350;42.698;23.148;2023-01-28T06:06:48;93197.81;;;-0.17;100.00
10606;BME280;5350;42.698;23.148;2023-01-28T06:09:15;93200.94;;;-0.15;100.00
10606;BME280;5350;42.698;23.148;2023-01-28T06:11:41;93205.25;;;-0.20;100.00
10606;BME280;5350;42.698;23.148;2023-01-28T06:14:09;93205.97;;;-0.08;100.00
10606;BME280;5350;42.698;23.148;2023-01-28T06:16:36;93213.03;;;-0.20;100.00
10606;BME280;5350;42.698;23.148;2023-01-28T06:19:03;93212.47;;;-0.22;100.00
10606;BME280;5350;42.698;23.148;2023-01-28T06:21:29;93220.69;;;-0.25;100.00
10606;BME280;5350;42.698;23.148;2023-01-28T06:23:57;93228.06;;;-0.17;100.00
10606;BME280;5350;42.698;23.148;2023-01-28T06:26:24;93226.31;;;-0.28;100.00
10606;BME280;5350;42.698;23.148;2023-01-28T06:28:51;93228.34;;;-0.30;100.00
10606;BME280;5350;42.698;23.148;2023-01-28T06:31:18;93226.78;;;-0.31;100.00
10606;BME280;5350;42.698;23.148;2023-01-28T06:33:44;93228.19;;;-0.40;100.00
10606;BME280;5350;42.698;23.148;2023-01-28T06:36:11;93228.97;;;-0.40;100.00
10606;BME280;5350;42.698;23.148;2023-01-28T06:38:38;93235.75;;;-0.50;100.00
10606;BME280;5350;42.698;23.148;2023-01-28T06:41:06;93233.22;;;-0.34;100.00
10606;BME280;5350;42.698;23.148;2023-01-28T06:43:33;93238.13;;;-0.32;100.00
10606;BME280;5350;42.698;23.148;2023-01-28T06:46:00;93252.06;;;-0.33;100.00
10606;BME280;5350;42.698;23.148;2023-01-28T06:48:27;93249.47;;;-0.33;100.00
10606;BME280;5350;42.698;23.148;2023-01-28T06:50:54;93259.97;;;-0.40;100.00
10606;BME280;5350;42.698;23.148;2023-01-28T06:53:21;93260.06;;;-0.35;100.00
10606;BME280;5350;42.698;23.148;2023-01-28T06:55:48;93267.44;;;-0.27;100.00
10606;BME280;5350;42.698;23.148;2023-01-28T06:58:16;93264.81;;;-0.15;100.00
10606;BME280;5350;42.698;23.148;2023-01-28T07:00:43;93267.03;;;-0.07;100.00
10606;BME280;5350;42.698;23.148;2023-01-28T07:03:10;93270.81;;;0.02;100.00
10606;BME280;5350;42.698;23.148;2023-01-28T07:05:36;93258.97;;;0.06;100.00
10606;BME280;5350;42.698;23.148;2023-01-28T07:08:03;93282.81;;;0.08;100.00
10606;BME280;5350;42.698;23.148;2023-01-28T07:10:30;93285.19;;;-0.02;100.00
10606;BME280;5350;42.698;23.148;2023-01-28T07:12:57;93283.09;;;-0.05;100.00
10606;BME280;5350;42.698;23.148;2023-01-28T07:15:25;93285.28;;;0.03;100.00
10606;BME280;5350;42.698;23.148;2023-01-28T07:17:52;93290.94;;;0.00;100.00
10606;BME280;5350;42.698;23.148;2023-01-28T07:20:19;93294.34;;;-0.11;100.00
10606;BME280;5350;42.698;23.148;2023-01-28T07:22:46;93284.47;;;-0.14;100.00
10606;BME280;5350;42.698;23.148;2023-01-28T07:25:14;93299.97;;;-0.14;100.00
10606;BME280;5350;42.698;23.148;2023-01-28T07:27:48;93302.19;;;-0.06;100.00
10606;BME280;5350;42.698;23.148;2023-01-28T07:30:16;93312.06;;;-0.03;100.00
10606;BME280;5350;42.698;23.148;2023-01-28T07:32:44;93303.28;;;-0.02;100.00
10606;BME280;5350;42.698;23.148;2023-01-28T07:35:12;93298.34;;;-0.04;100.00
10606;BME280;5350;42.698;23.148;2023-01-28T07:37:40;93317.69;;;-0.06;100.00
10606;BME280;5350;42.698;23.148;2023-01-28T07:40:08;93308.00;;;0.01;100.00
10606;BME280;5350;42.698;23.148;2023-01-28T07:42:35;93313.75;;;0.20;100.00
10606;BME280;5350;42.698;23.148;2023-01-28T07:45:01;93314.03;;;0.35;100.00
10606;BME280;5350;42.698;23.148;2023-01-28T07:47:29;93315.97;;;0.44;100.00
10606;BME280;5350;42.698;23.148;2023-01-28T07:49:57;93329.72;;;0.61;100.00
10606;BME280;5350;42.698;23.148;2023-01-28T07:52:24;93332.56;;;0.76;100.00
10606;BME280;5350;42.698;23.148;2023-01-28T07:54:51;93334.59;;;0.91;100.00
10606;BME280;5350;42.698;23.148;2023-01-28T07:57:17;93340.22;;;0.88;100.00
10606;BME280;5350;42.698;23.148;2023-01-28T07:59:47;93334.28;;;0.88;100.00
10606;BME280;5350;42.698;23.148;2023-01-28T08:02:15;93338.31;;;1.00;100.00
10606;BME280;5350;42.698;23.148;2023-01-28T08:04:41;93337.00;;;1.14;100.00
10606;BME280;5350;42.698;23.148;2023-01-28T08:07:09;93346.81;;;1.12;100.00
10606;BME280;5350;42.698;23.148;2023-01-28T08:09:36;93350.56;;;1.05;100.00
10606;BME280;5350;42.698;23.148;2023-01-28T08:12:05;93354.19;;;1.20;100.00
10606;BME280;5350;42.698;23.148;2023-01-28T08:14:31;93360.28;;;1.31;100.00
10606;BME280;5350;42.698;23.148;2023-01-28T08:16:58;93346.41;;;1.42;100.00
10606;BME280;5350;42.698;23.148;2023-01-28T08:19:25;93358.50;;;1.53;100.00
10606;BME280;5350;42.698;23.148;2023-01-28T08:21:53;93368.22;;;1.63;100.00
10606;BME280;5350;42.698;23.148;2023-01-28T08:24:21;93363.97;;;1.73;100.00
10606;BME280;5350;42.698;23.148;2023-01-28T08:26:47;93367.56;;;1.72;100.00
10606;BME280;5350;42.698;23.148;2023-01-28T08:29:14;93366.72;;;1.67;99.61
10606;BME280;5350;42.698;23.148;2023-01-28T08:31:41;93369.66;;;1.53;99.95
10606;BME280;5350;42.698;23.148;2023-01-28T08:34:08;93369.38;;;1.50;100.00
10606;BME280;5350;42.698;23.148;2023-01-28T08:36:35;93367.06;;;1.53;100.00
10606;BME280;5350;42.698;23.148;2023-01-28T08:39:01;93369.53;;;1.43;100.00
10606;BME280;5350;42.698;23.148;2023-01-28T08:41:30;93374.13;;;1.58;100.00
10606;BME280;5350;42.698;23.148;2023-01-28T08:43:57;93374.53;;;1.50;100.00
10606;BME280;5350;42.698;23.148;2023-01-28T08:46:24;93369.50;;;1.60;100.00
10606;BME280;5350;42.698;23.148;2023-01-28T08:48:51;93372.31;;;1.80;100.00
10606;BME280;5350;42.698;23.148;2023-01-28T08:51:18;93379.69;;;1.88;99.87
10606;BME280;5350;42.698;23.148;2023-01-28T08:53:45;93375.47;;;1.82;99.95
10606;BME280;5350;42.698;23.148;2023-01-28T08:56:11;93376.06;;;1.68;100.00
10606;BME280;5350;42.698;23.148;2023-01-28T08:58:40;93375.88;;;1.74;100.00
10606;BME280;5350;42.698;23.148;2023-01-28T09:01:06;93382.41;;;1.77;100.00
10606;BME280;5350;42.698;23.148;2023-01-28T09:03:33;93384.19;;;1.76;100.00
10606;BME280;5350;42.698;23.148;2023-01-28T09:06:02;93379.75;;;1.33;100.00
10606;BME280;5350;42.698;23.148;2023-01-28T09:08:29;93379.59;;;1.07;100.00
10606;BME280;5350;42.698;23.148;2023-01-28T09:10:57;93375.22;;;0.91;100.00
10606;BME280;5350;42.698;23.148;2023-01-28T09:13:24;93374.59;;;1.00;100.00
10606;BME280;5350;42.698;23.148;2023-01-28T09:15:52;93378.84;;;1.06;100.00
10606;BME280;5350;42.698;23.148;2023-01-28T09:18:19;93374.06;;;1.15;100.00
10606;BME280;5350;42.698;23.148;2023-01-28T09:20:46;93375.91;;;1.03;100.00
10606;BME280;5350;42.698;23.148;2023-01-28T09:23:13;93365.41;;;0.59;100.00
10606;BME280;5350;42.698;23.148;2023-01-28T09:25:39;93375.97;;;0.41;100.00
10606;BME280;5350;42.698;23.148;2023-01-28T09:28:06;93383.66;;;0.53;100.00
10606;BME280;5350;42.698;23.148;2023-01-28T09:30:33;93372.84;;;0.39;100.00
10606;BME280;5350;42.698;23.148;2023-01-28T09:33:02;93375.50;;;0.44;100.00
10606;BME280;5350;42.698;23.148;2023-01-28T09:35:29;93371.81;;;0.40;100.00
10606;BME280;5350;42.698;23.148;2023-01-28T09:37:56;93373.47;;;0.46;100.00
10606;BME280;5350;42.698;23.148;2023-01-28T09:40:33;93373.94;;;0.43;100.00
10606;BME280;5350;42.698;23.148;2023-01-28T09:43:12;93371.53;;;0.53;100.00
10606;BME280;5350;42.698;23.148;2023-01-28T09:45:46;93366.50;;;0.63;100.00
10606;BME280;5350;42.698;23.148;2023-01-28T09:48:17;93374.44;;;0.73;100.00
10606;BME280;5350;42.698;23.148;2023-01-28T09:50:48;93369.25;;;0.90;100.00
10606;BME280;5350;42.698;23.148;2023-01-28T09:53:19;93368.50;;;0.90;100.00
10606;BME280;5350;42.698;23.148;2023-01-28T09:55:48;93368.50;;;0.90;100.00
10606;BME280;5350;42.698;23.148;2023-01-28T09:58:16;93375.72;;;1.04;100.00
10606;BME280;5350;42.698;23.148;2023-01-28T10:00:51;93375.94;;;0.86;100.00
10606;BME280;5350;42.698;23.148;2023-01-28T10:06:41;93374.81;;;0.82;100.00
10606;BME280;5350;42.698;23.148;2023-01-28T10:09:18;93376.47;;;0.88;100.00
10606;BME280;5350;42.698;23.148;2023-01-28T10:11:57;93358.44;;;0.76;100.00
10606;BME280;5350;42.698;23.148;2023-01-28T10:14:36;93371.78;;;1.02;100.00
10606;BME280;5350;42.698;23.148;2023-01-28T10:17:10;93363.63;;;0.76;100.00
10606;BME280;5350;42.698;23.148;2023-01-28T10:19:42;93368.78;;;0.93;100.00
10606;BME280;5350;42.698;23.148;2023-01-28T10:22:14;93368.41;;;0.85;100.00
10606;BME280;5350;42.698;23.148;2023-01-28T10:24:45;93371.25;;;0.83;100.00
10606;BME280;5350;42.698;23.148;2023-01-28T10:27:16;93364.78;;;0.86;100.00
10606;BME280;5350;42.698;23.148;2023-01-28T10:29:46;93371.00;;;0.85;100.00
10606;BME280;5350;42.698;23.148;2023-01-28T10:32:20;93366.06;;;0.83;100.00
10606;BME280;5350;42.698;23.148;2023-01-28T10:34:50;93362.59;;;0.77;100.00
10606;BME280;5350;42.698;23.148;2023-01-28T10:37:18;93358.91;;;0.73;100.00
10606;BME280;5350;42.698;23.148;2023-01-28T10:39:46;93355.75;;;0.88;100.00
10606;BME280;5350;42.698;23.148;2023-01-28T10:42:19;93369.22;;;1.23;100.00
10606;BME280;5350;42.698;23.148;2023-01-28T10:44:48;93360.91;;;1.21;100.00
10606;BME280;5350;42.698;23.148;2023-01-28T10:47:22;93367.97;;;1.26;100.00
10606;BME280;5350;42.698;23.148;2023-01-28T10:49:57;93369.84;;;1.30;100.00
10606;BME280;5350;42.698;23.148;2023-01-28T10:52:25;93362.34;;;1.29;100.00
10606;BME280;5350;42.698;23.148;2023-01-28T10:54:58;93369.44;;;1.38;100.00
10606;BME280;5350;42.698;23.148;2023-01-28T10:57:25;93366.22;;;1.48;100.00
10606;BME280;5350;42.698;23.148;2023-01-28T10:59:53;93362.25;;;1.62;100.00
10606;BME280;5350;42.698;23.148;2023-01-28T11:02:25;93372.56;;;1.79;100.00
10606;BME280;5350;42.698;23.148;2023-01-28T11:05:03;93360.97;;;1.86;100.00
10606;BME280;5350;42.698;23.148;2023-01-28T11:07:31;93368.22;;;1.84;100.00
10606;BME280;5350;42.698;23.148;2023-01-28T11:09:57;93372.75;;;1.72;100.00
10606;BME280;5350;42.698;23.148;2023-01-28T11:12:26;93365.25;;;1.54;100.00
10606;BME280;5350;42.698;23.148;2023-01-28T11:14:55;93373.28;;;1.74;100.00
10606;BME280;5350;42.698;23.148;2023-01-28T11:17:23;93378.06;;;1.60;100.00
10606;BME280;5350;42.698;23.148;2023-01-28T11:19:51;93370.81;;;1.63;100.00
10606;BME280;5350;42.698;23.148;2023-01-28T11:22:26;93369.16;;;1.73;100.00
10606;BME280;5350;42.698;23.148;2023-01-28T11:24:58;93369.91;;;1.95;100.00
10606;BME280;5350;42.698;23.148;2023-01-28T11:27:28;93379.75;;;1.93;100.00
10606;BME280;5350;42.698;23.148;2023-01-28T11:29:56;93379.13;;;1.86;100.00
10606;BME280;5350;42.698;23.148;2023-01-28T11:32:27;93371.72;;;1.95;100.00
10606;BME280;5350;42.698;23.148;2023-01-28T11:34:55;93368.59;;;1.93;100.00
10606;BME280;5350;42.698;23.148;2023-01-28T11:37:26;93368.84;;;1.91;100.00
10606;BME280;5350;42.698;23.148;2023-01-28T11:40:13;93375.81;;;1.91;100.00
10606;BME280;5350;42.698;23.148;2023-01-28T11:42:44;93376.47;;;2.03;100.00
10606;BME280;5350;42.698;23.148;2023-01-28T11:45:15;93375.00;;;1.85;99.02
10606;BME280;5350;42.698;23.148;2023-01-28T11:47:54;93359.47;;;1.90;100.00
10606;BME280;5350;42.698;23.148;2023-01-28T11:50:33;93357.31;;;1.82;100.00
10606;BME280;5350;42.698;23.148;2023-01-28T11:53:13;93357.13;;;1.89;100.00
10606;BME280;5350;42.698;23.148;2023-01-28T11:55:54;93359.94;;;2.09;100.00
10606;BME280;5350;42.698;23.148;2023-01-28T11:58:32;93356.66;;;1.92;99.01
10606;BME280;5350;42.698;23.148;2023-01-28T12:01:07;93360.56;;;1.94;99.88
10606;BME280;5350;42.698;23.148;2023-01-28T12:03:44;93358.47;;;1.91;100.00
10606;BME280;5350;42.698;23.148;2023-01-28T12:06:41;93359.84;;;1.77;100.00
10606;BME280;5350;42.698;23.148;2023-01-28T12:09:19;93358.25;;;1.54;100.00
10606;BME280;5350;42.698;23.148;2023-01-28T12:12:06;93360.25;;;1.47;100.00
10606;BME280;5350;42.698;23.148;2023-01-28T12:14:56;93348.03;;;1.26;100.00
10606;BME280;5350;42.698;23.148;2023-01-28T12:17:37;93356.66;;;1.32;100.00
10606;BME280;5350;42.698;23.148;2023-01-28T12:20:17;93354.06;;;1.32;100.00
10606;BME280;5350;42.698;23.148;2023-01-28T12:23:05;93355.09;;;1.31;100.00
10606;BME280;5350;42.698;23.148;2023-01-28T12:25:46;93368.44;;;1.39;100.00
10606;BME280;5350;42.698;23.148;2023-01-28T12:28:27;93352.69;;;1.63;100.00
10606;BME280;5350;42.698;23.148;2023-01-28T12:31:11;93360.03;;;1.71;100.00
10606;BME280;5350;42.698;23.148;2023-01-28T12:33:57;93352.00;;;1.72;100.00
10606;BME280;5350;42.698;23.148;2023-01-28T12:36:36;93355.91;;;1.96;100.00
10606;BME280;5350;42.698;23.148;2023-01-28T12:39:16;93361.28;;;2.11;100.00
10606;BME280;5350;42.698;23.148;2023-01-28T12:41:50;93364.41;;;2.13;99.56
10606;BME280;5350;42.698;23.148;2023-01-28T12:44:24;93367.72;;;2.09;100.00
10606;BME280;5350;42.698;23.148;2023-01-28T12:46:54;93374.19;;;1.85;99.23
10606;BME280;5350;42.698;23.148;2023-01-28T12:49:28;93367.22;;;1.85;100.00
10606;BME280;5350;42.698;23.148;2023-01-28T12:52:01;93373.47;;;1.89;100.00
10606;BME280;5350;42.698;23.148;2023-01-28T12:54:34;93374.75;;;2.08;100.00
10606;BME280;5350;42.698;23.148;2023-01-28T12:57:04;93376.94;;;2.21;99.61
10606;BME280;5350;42.698;23.148;2023-01-28T12:59:38;93375.50;;;2.30;98.08
10606;BME280;5350;42.698;23.148;2023-01-28T13:02:24;93365.91;;;2.09;97.55
10606;BME280;5350;42.698;23.148;2023-01-28T13:04:58;93379.44;;;2.11;100.00
10606;BME280;5350;42.698;23.148;2023-01-28T13:07:32;93376.03;;;2.32;100.00
10606;BME280;5350;42.698;23.148;2023-01-28T13:10:04;93378.38;;;2.34;98.90
10606;BME280;5350;42.698;23.148;2023-01-28T13:12:34;93383.03;;;2.32;99.68
10606;BME280;5350;42.698;23.148;2023-01-28T13:15:09;93385.69;;;2.37;100.00
10606;BME280;5350;42.698;23.148;2023-01-28T13:17:37;93385.97;;;2.40;99.83
10606;BME280;5350;42.698;23.148;2023-01-28T13:20:14;93389.97;;;2.48;97.19